Tiempo atmosférico en la estación meteorológica de Valencia De Alcántara, Cáceres (445 m.)



Fecha
DESCASC
Temp. máxima en grados centígrados (hora)
DESCASC
Temp. mínima en grados centígrados (hora)
DESCASC
Temp. media en grados centígrados
DESCASC
Racha de viento máxima en m/sg (hora)
DESCASC
Velocidad máxima media en intervalos de 10 minutos(hora)
DESCASC
Precipitaciones diarias en mm
DESCASC
Precipitaciones de 00:00 a 06:00 en mm
DESCASC
Precipitaciones de 06:00 a 12:00 en mm
DESCASC
Precipitaciones de 12:00 a 18:00 en mm
DESCASC
Precipitaciones de 18:00 a 24:00 en mm
DESCASC
28-12-2019 15.9 (16:30) 3.8 (00:00) 9.8 3.89 (14:40) 2.5 (14:30) 0 0 0 0 0
21-01-2020 10.6 (15:40) 1.5 (00:00) 6.1 11.39 (22:20) 6.39 (22:20) 0 0 0 0 0
20-01-2020 7.4 (16:10) 2.9 (00:00) 5.2 18.06 (01:30) 9.17 (02:00) 0 0 0 0 0
19-01-2020 12.1 (15:10) 4.7 (00:00) 8.4 18.89 (13:00) 11.11 (14:20) 0 0 0 0 0
17-01-2020 13.4 (15:00) 5.9 (00:00) 9.6 6.39 (15:00) 3.61 (12:00) 0 0 0 0 0
14-01-2020 10.9 (14:30) 3.2 (00:00) 7 13.33 (18:40) 7.22 (20:10) 0 0 0 0 0
13-01-2020 10.9 (14:30) 0.5 (00:00) 5.7 4.17 (15:30) 3.33 (07:50) 0 0 0 0 0
12-01-2020 12.1 (17:10) -1 (-00:0) 5.6 3.33 (02:00) 2.5 (02:00) 0 0 0 0 0
11-01-2020 11.4 (15:20) -0.3 (00:00) 5.5 5.56 (14:40) 3.06 (13:30) 0 0 0 0 0
10-01-2020 11.9 (16:00) 4.6 (00:00) 8.2 10 (10:30) 5.83 (10:30) 0 0 0 0 0
09-01-2020 15.4 (16:20) 2 (00:00) 8.7 10 (19:30) 5.83 (20:30) 0 0 0 0 0
08-01-2020 13.8 (16:20) 1.3 (00:00) 7.6 3.89 (07:50) 3.33 (07:50) 0 0 0 0 0
06-01-2020 12.3 (15:20) 0.9 (00:00) 6.6 3.89 (13:20) 2.5 (07:50) 0 0 0 0 0
27-12-2019 14.5 (16:10) 4.4 (00:00) 9.5 4.72 (13:50) 2.5 (13:30) 0 0 0 0 0
29-12-2019 16.4 (15:20) 3.5 (00:00) 9.9 4.72 (15:50) 3.33 (15:50) 0 0 0 0 0
30-12-2019 14.8 (17:10) 1.9 (00:00) 8.4 3.61 (23:30) 2.5 (23:30) 0 0 0 0 0
31-12-2019 13.3 (16:50) 1.6 (00:00) 7.5 3.33 (03:10) 2.5 (03:10) 0 0 0 0 0
01-01-2020 11.9 (17:20) 1.1 (00:00) 6.5 3.89 (15:00) 2.5 (15:00) 0 0 0 0 0
02-01-2020 9 (22:50) 1.4 (00:00) 5.2 3.61 (21:30) 2.22 (00:10) 0 0 0 0 0
03-01-2020 12.5 (16:00) 5.8 (00:00) 9.2 6.39 (15:40) 3.89 (14:20) 0 0 0 0 0
04-01-2020 10.9 (16:20) 2.7 (00:00) 6.8 8.61 (16:00) 5.28 (15:40) 0 0 0 0 0
05-01-2020 12 (16:30) 0.2 (00:00) 6.1 3.89 (17:40) 2.22 (17:40) 0 0 0 0 0
07-01-2020 14.1 (15:40) 0.9 (00:00) 7.5 3.61 (15:40) 2.5 (02:00) 0 0 0 0 0
16-01-2020 15 (15:30) 9.3 (00:00) 12.2 13.33 (17:00) 6.94 (17:00) 2 0 0 0 2
15-01-2020 15.1 (16:50) 8.9 (00:00) 12 15.56 (03:50) 8.33 (04:00) 2.2 0.6 1.6 0 0
18-01-2020 15.2 (15:50) 8.6 (00:00) 11.9 15.28 (21:50) 8.61 (21:40) 3.4 1 2.4 0 0
25-01-2020 10.6 (18:30) 6.2 (00:00) 8.4 6.94 (01:00) 3.89 (01:00) 3.4 3 0.4 0 0
22-01-2020 7.8 (21:50) 4.9 (00:00) 6.4 10 (00:20) 6.11 (00:20) 3.8 0 1 2.6 0.2
24-01-2020 10.8 (13:40) 6.9 (00:00) 8.9 8.89 (11:40) 5.56 (11:50) 6.2 0 0.2 1 5
23-01-2020 9 (17:30) 6.6 (00:00) 7.8 9.17 (22:40) 5.28 (05:10) 10.4 5.4 1.4 3.6 0

Gráficas

Temp. máximas Temp. mínimas Temp. medias Precipitaciones Rachas de viento máximas Velocidades máximas media en intervalos de 10 minutos

Datos horarios

Fecha y hora oficial Temperatura (ºC) Velocidad del viento (km/h) Dirección del viento Racha (km/h) Dirección de racha Precipitación (mm) Presión (hPa) Tendencia (hPa) Humedad (%)
2020-01-25 23:00:00 7 8 Sudoeste 15 Sudoeste 0 967 1.8 90
2020-01-25 22:00:00 6.8 9 Sudoeste 15 Sudoeste 0 966.4 1.9 91
2020-01-25 21:00:00 6.8 4 Sur 9 Sur 0 965.7 1.7 91
2020-01-25 20:00:00 8 6 Sudoeste 10 Oeste 0 965.2 1.7 88
2020-01-25 19:00:00 9.2 5 Sudoeste 8 Sudoeste 0 964.5 1.3 85
2020-01-25 18:00:00 10.2 5 Noroeste 11 Noroeste 0 964 0.7 83
2020-01-25 17:00:00 10 5 Oeste 13 Noroeste 0 963.5 -0.2 83
2020-01-25 16:00:00 9.5 8 Noroeste 14 Noroeste 0 963.2 -0.8 86
2020-01-25 15:00:00 9.8 3 Oeste 10 Noroeste 0 963.3 -0.9 86
2020-01-25 14:00:00 9 6 Noroeste 15 Noroeste 0 963.7 -0.1 91
2020-01-25 13:00:00 9.2 7 Noroeste 13 Noroeste 0 964 0.7 92
2020-01-25 12:00:00 8.2 3 Norte 8 Noroeste 0 964.2 1.4 96
2020-01-25 11:00:00 7.7 5 Noroeste 8 Noroeste 0.2 963.8 1.6 97
2020-01-25 10:00:00 7.6 3 Sudoeste 5 Oeste 0 963.3 1.5 97
2020-01-25 09:00:00 7.5 0 Calma 5 Noroeste 0 962.8 0.9 97
2020-01-25 08:00:00 7.5 0 Calma 6 Noroeste 0.2 962.2 0.2 96
2020-01-25 07:00:00 7.5 0 Calma 10 Este 0 961.8 -0.3 96
2020-01-25 06:00:00 7.4 6 Este 15 Este 0.4 961.9 -0.4 96
2020-01-25 05:00:00 7.4 6 Este 15 Este 0.8 962 -0.8 96
2020-01-25 04:00:00 7.4 10 Este 18 Este 1 962.1 -1.2 95
2020-01-25 03:00:00 7.6 6 Nordeste 13 Este 0.4 962.3 -1.3 95
2020-01-25 02:00:00 7.6 9 Este 22 Este 0.2 962.8 -1.2 94
2020-01-25 01:00:00 8 14 Este 25 Este 0.2 963.3 -0.9 94
2020-01-25 00:00:00 8.3 11 Este 21 Este 1.2 963.6 -0.7 96
2020-01-24 23:00:00 8.4 11 Este 19 Este 2.2 964 0 95
2020-01-24 22:00:00 8.5 11 Este 21 Este 1.6 964.2 0.4 95
2020-01-24 21:00:00 8.7 11 Este 20 Nordeste 0 964.3 0.2 93
2020-01-24 20:00:00 8.7 9 Este 17 Este 0 964 -0.4 94
2020-01-24 19:00:00 9 7 Nordeste 11 Este 0 963.8 -0.8 93
2020-01-24 18:00:00 9.4 8 Este 21 Este 0.8 964.1 -1 92
2020-01-24 17:00:00 9.7 10 Este 27 Este 0.2 964.4 -1.4 89
2020-01-24 16:00:00 10.5 11 Este 23 Este 0 964.6 -2 84
2020-01-24 15:00:00 10.3 15 Este 23 Este 0 965.1 -1.6 83
2020-01-24 14:00:00 10.6 12 Este 26 Sudeste 0 965.8 -0.5 82
2020-01-24 13:00:00 10.5 14 Sudeste 31 Sudeste 0 966.6 0.6 81
2020-01-24 12:00:00 9.6 18 Sudeste 32 Sudeste 0 966.7 0.9 86
2020-01-24 11:00:00 8.4 9 Sudeste 19 Sudeste 0 966.3 0.9 93
2020-01-24 10:00:00 7.5 4 Nordeste 11 Nordeste 0 966 1 96
2020-01-24 09:00:00 7.1 3 Este 13 Sudeste 0 965.8 0.8 95
2020-01-24 08:00:00 7.1 2 Sudeste 21 Sudeste 0 965.4 0.3 95
2020-01-24 07:00:00 7.4 9 Sudeste 23 Sudeste 0.2 965 -0.2 93
2020-01-24 06:00:00 7.5 6 Sudeste 17 Sudeste 0 965 -0.1 94
2020-01-24 05:00:00 7.6 8 Sur 19 Sur 0 965.1 -0.1 94
2020-01-24 04:00:00 7.6 7 Sudeste 20 Sudeste 0 965.2 0.1 93
2020-01-24 03:00:00 7.7 8 Sudeste 19 Sur 0 965.1 0.2 93
2020-01-24 02:00:00 7.5 6 Sudeste 17 Sudeste 0 965.2 0.7 94
2020-01-24 01:00:00 7.2 9 Sudeste 18 Sudeste 0 965.1 1.1 94
2020-01-24 00:00:00 7.3 8 Sur 25 Sudeste 0 964.9 1.1 91
2020-01-23 23:00:00 7.7 15 Sudeste 33 Sudeste 0 964.5 1.3 89
2020-01-23 22:00:00 7.9 15 Sudeste 30 Sudeste 0 964 1.3 88
2020-01-23 21:00:00 8.2 18 Sudeste 32 Este 0 963.8 1.7 86
2020-01-23 20:00:00 8.2 9 Sudeste 20 Sudeste 0 963.2 1.5 88
2020-01-23 19:00:00 8.7 12 Este 24 Este 0 962.7 1.2 86
2020-01-23 18:00:00 8.9 14 Este 31 Este 0 962.1 0.2 90
2020-01-23 17:00:00 8.9 15 Este 29 Sudeste 0 961.7 -0.7 90
2020-01-23 16:00:00 8.6 15 Este 31 Este 0.2 961.5 -1.5 92
2020-01-23 15:00:00 8.4 17 Este 30 Sudeste 1.8 961.9 -1.7 93
2020-01-23 14:00:00 8.5 14 Este 27 Este 0.8 962.4 -0.6 92
2020-01-23 13:00:00 8 15 Este 28 Sudeste 0.8 963 0.5 93
2020-01-23 12:00:00 7.8 13 Este 28 Sudeste 0 963.6 1.5 92
2020-01-23 11:00:00 7.6 14 Sudeste 28 Sudeste 0 963 1.3 93
2020-01-23 10:00:00 7.3 11 Sudeste 28 Este 0.2 962.5 1.1 93
2020-01-23 09:00:00 7.1 9 Sudeste 27 Sudeste 1 962.1 0.7 94
2020-01-23 08:00:00 7.1 15 Sudeste 27 Este 0 961.7 0.1 94
2020-01-23 07:00:00 7 16 Este 31 Este 0.2 961.4 -0.8 95
2020-01-23 06:00:00 6.9 19 Este 32 Este 0.6 961.4 -1 95
2020-01-23 05:00:00 6.7 17 Este 32 Este 1.4 961.6 -1.1 95
2020-01-23 04:00:00 6.7 13 Este 26 Sudeste 1.8 962.2 -0.8 94
2020-01-23 03:00:00 6.9 13 Este 22 Sudeste 1.2 962.4 -0.5 94
2020-01-23 02:00:00 7.3 12 Sudeste 21 Sudeste 0.4 962.7 -0.2 90
2020-01-23 01:00:00 7.6 8 Sudeste 14 Este 0 963 0.2 86
2020-01-23 00:00:00 7.4 8 Este 14 Este 0 962.9 0.1 88
2020-01-22 23:00:00 7.7 8 Este 16 Este 0 962.9 0.3 87
2020-01-22 22:00:00 7.7 10 Este 17 Este 0 962.8 0.2 86
2020-01-22 21:00:00 7.7 7 Este 14 Este 0 962.8 0.2 88
2020-01-22 20:00:00 7.5 8 Este 14 Este 0.2 962.6 0.1 89
2020-01-22 19:00:00 7.6 6 Este 21 Este 0 962.6 0 90
2020-01-22 18:00:00 7.7 11 Este 29 Este 0 962.6 -0.3 90
2020-01-22 17:00:00 7.5 18 Este 34 Este 0.2 962.5 -0.9 91
2020-01-22 16:00:00 7.2 16 Este 29 Nordeste 0.2 962.6 -1.6 93
2020-01-22 15:00:00 6.9 17 Este 31 Este 0.2 962.9 -1.4 92
2020-01-22 14:00:00 6.8 18 Este 35 Este 0.8 963.4 -0.7 92
2020-01-22 13:00:00 6.4 18 Este 29 Este 1.2 964.2 0.6 92
2020-01-22 12:00:00 6.3 15 Nordeste 30 Nordeste 1 964.3 1 90
2020-01-22 11:00:00 6.6 11 Este 29 Nordeste 0 964.1 1.1 86
2020-01-22 10:00:00 5.9 12 Nordeste 27 Este 0 963.6 0.8 87
2020-01-22 09:00:00 5.4 8 Nordeste 18 Este 0 963.3 0.5 85
2020-01-22 08:00:00 5.1 9 Este 19 Nordeste 0 963 -0.2 84
2020-01-22 07:00:00 5.4 12 Nordeste 23 Nordeste 0 962.8 -0.9 82
2020-01-22 06:00:00 4.9 8 Este 18 Este 0 962.8 -1 84
2020-01-22 05:00:00 5.3 3 Sudeste 18 Este 0 963.2 -0.8 82
2020-01-22 04:00:00 5.5 6 Nordeste -- -- 0 963.7 -0.2 83
2020-01-22 03:00:00 6.5 13 Nordeste 27 Nordeste 0 963.8 -0.1 79
2020-01-22 02:00:00 6.5 12 Nordeste 24 Este 0 964 0.9 81
2020-01-22 01:00:00 7 11 Nordeste 36 Nordeste 0 963.9 0.7 78
2020-01-22 00:00:00 7.1 18 Nordeste 40 Nordeste 0 963.9 0.8 76
2020-01-21 23:00:00 7.1 10 Este 41 Nordeste 0 963.1 -0.1 74
2020-01-21 22:00:00 7.6 18 Nordeste 38 Nordeste 0 963.2 0 69
2020-01-21 21:00:00 7.3 16 Nordeste 39 Nordeste 0 963.1 0.2 67
2020-01-21 20:00:00 7.1 18 Nordeste 32 Nordeste 0 963.2 0.7 67
2020-01-21 19:00:00 7.6 13 Norte 30 Nordeste 0 963.2 0.2 65
2020-01-21 18:00:00 8.6 15 Norte 32 Norte 0 962.9 -0.7 62
2020-01-21 17:00:00 10.1 13 Norte 30 Nordeste 0 962.5 -1.8 57
2020-01-21 16:00:00 9.9 12 Norte 30 Nordeste 0 963 -2.5 56
2020-01-21 15:00:00 8.7 17 Norte 35 Norte 0 963.6 -2.4 59
2020-01-21 14:00:00 9.3 12 Norte 29 Norte 0 964.3 -2.1 55
2020-01-21 13:00:00 8.4 16 Norte 28 Norte 0 965.5 -0.8 59
2020-01-21 12:00:00 6.3 20 Norte 37 Nordeste 0 966 -0.6 61
2020-01-21 11:00:00 5.2 20 Nordeste 39 Nordeste 0 966.4 -0.2 62
2020-01-21 10:00:00 3.4 12 Nordeste 27 Norte 0 966.3 -0.4 69
2020-01-21 09:00:00 1.8 6 Noroeste 18 Nordeste 0 966.6 -0.3 76
2020-01-21 08:00:00 2.3 4 Oeste 33 Norte 0 966.6 -0.5 74
2020-01-21 07:00:00 2.2 5 Noroeste 29 Nordeste 0 966.7 -0.9 74
2020-01-21 06:00:00 3.2 10 Norte 31 Norte 0 966.9 -1 70
2020-01-21 05:00:00 3.6 12 Nordeste 25 Nordeste 0 967.1 -1.1 69
2020-01-21 04:00:00 3.5 10 Nordeste 28 Nordeste 0 967.6 -1 68
2020-01-21 03:00:00 3.6 9 Nordeste 31 Nordeste 0 967.9 -0.7 66
2020-01-21 02:00:00 3.8 20 Nordeste 36 Nordeste 0 968.2 -0.1 64
2020-01-21 01:00:00 4 16 Nordeste 34 Nordeste 0 968.6 0.5 62
2020-01-21 00:00:00 4.1 10 Nordeste 33 Norte 0 968.6 0.7 60
2020-01-20 23:00:00 4.6 23 Nordeste 42 Nordeste 0 968.3 0.6 57
2020-01-20 22:00:00 4.9 21 Nordeste 49 Nordeste 0 968.1 0.6 55
2020-01-20 21:00:00 5.2 28 Nordeste 48 Nordeste 0 967.9 0.6 51
2020-01-20 20:00:00 5.4 19 Nordeste 49 Norte 0 967.7 0.5 50
2020-01-20 19:00:00 6 23 Nordeste 45 Nordeste 0 967.5 -0.1 51
2020-01-20 18:00:00 6.6 22 Nordeste 52 Nordeste 0 967.3 -0.8 50
2020-01-20 17:00:00 6.8 27 Nordeste 51 Nordeste 0 967.2 -1.8 46
2020-01-20 16:00:00 7.2 31 Nordeste 50 Nordeste 0 967.6 -1.8 45
2020-01-20 15:00:00 6 25 Nordeste 48 Nordeste 0 968.1 -2.4 48
2020-01-20 14:00:00 6 18 Nordeste 64 Norte 0 969 -1.5 47
2020-01-20 13:00:00 5.4 26 Nordeste 47 Nordeste 0 969.4 -0.8 47
2020-01-20 12:00:00 5.1 22 Norte 45 Nordeste 0 970.5 0.5 50
2020-01-20 11:00:00 4.5 27 Norte 53 Norte 0 970.5 0 48
2020-01-20 10:00:00 3.3 24 Nordeste 54 Nordeste 0 970.2 0.1 53
2020-01-20 09:00:00 3 30 Nordeste 56 Nordeste 0 970 -0.2 51
2020-01-20 08:00:00 3.4 20 Norte 44 Norte 0 970.5 -0.4 48
2020-01-20 07:00:00 3.5 21 Norte 49 Nordeste 0 970.1 -1.4 49
2020-01-20 06:00:00 4.1 26 Norte 62 Nordeste 0 970.2 -1.3 47
2020-01-20 05:00:00 4.1 22 Norte 56 Nordeste 0 970.9 -0.8 47
2020-01-20 04:00:00 4 23 Nordeste 50 Norte 0 971.5 -1.6 49
2020-01-20 03:00:00 4 27 Norte 63 Nordeste 0 971.5 -1.6 51
2020-01-20 02:00:00 4.2 33 Nordeste 65 Nordeste 0 971.7 -0.9 50
2020-01-20 01:00:00 4.4 24 Norte -- -- 0 973.1 1.2 49
2020-01-20 00:00:00 4.8 19 Norte 45 Norte 0 973.1 1.1 44
2020-01-19 23:00:00 5.2 19 Norte 58 Norte 0 972.6 0.9 40
2020-01-19 22:00:00 5.7 32 Norte 60 Norte 0 971.9 0.8 43
2020-01-19 21:00:00 7.1 28 Norte 55 Norte 0 972 1.6 39
2020-01-19 20:00:00 8.1 27 Norte 66 Norte 0 971.7 0.7 41
2020-01-19 19:00:00 9.4 27 Norte 61 Norte 0 971.1 0.2 37
2020-01-19 18:00:00 10.7 26 Norte 57 Nordeste 0 970.4 -0.8 37
2020-01-19 17:00:00 11.6 22 Norte 49 Norte 0 971 -0.4 33
2020-01-19 16:00:00 11.7 27 Norte 54 Norte 0 970.9 -1.1 34
2020-01-19 15:00:00 11.9 30 Norte 58 Norte 0 971.2 -1.3 42
2020-01-19 14:00:00 11.2 38 Norte 66 Norte 0 971.4 -0.6 52
2020-01-19 13:00:00 11.2 38 Norte 68 Norte 0 972 0.3 56
2020-01-19 12:00:00 10 17 Norte 31 Norte 0 972.5 1.4 70
2020-01-19 11:00:00 8.5 16 Noroeste 26 Norte 0 972 1.8 75
2020-01-19 10:00:00 6.8 8 Noroeste 19 Oeste 0 971.7 2 83
2020-01-19 09:00:00 6.4 8 Noroeste 19 Noroeste 0 971.1 1.6 86
2020-01-19 08:00:00 6.5 9 Noroeste 16 Noroeste 0 970.2 0.4 90
2020-01-19 07:00:00 7.3 13 Noroeste 29 Oeste 0 969.7 -0.2 89
2020-01-19 06:00:00 7.9 11 Oeste 28 Oeste 0 969.5 -0.9 90
2020-01-19 05:00:00 7.9 15 Oeste 40 Oeste 0 969.8 -1.3 92
2020-01-19 04:00:00 8 19 Oeste 39 Oeste 0 969.9 -1.4 89
2020-01-19 03:00:00 8.2 18 Oeste 33 Oeste 0 970.4 -0.6 86
2020-01-19 02:00:00 8 21 Oeste 44 Oeste 0 971.1 0.1 86
2020-01-19 01:00:00 8.6 23 Oeste 43 Oeste 0 971.3 0.1 83
2020-01-19 00:00:00 8.6 23 Oeste 42 Oeste 0 971 0 79
2020-01-18 23:00:00 9.5 22 Oeste 47 Oeste 0 971 -0.3 89
2020-01-18 22:00:00 10.4 26 Oeste 55 Oeste 0 971.2 0.1 84
2020-01-18 21:00:00 10.9 28 Oeste 45 Oeste 0 971 -0.4 82
2020-01-18 20:00:00 11.4 22 Oeste 52 Oeste 0 971.3 -0.3 81
2020-01-18 19:00:00 13.1 21 Sudoeste 40 Oeste 0 971.1 -1.4 74
2020-01-18 18:00:00 14.3 15 Oeste 35 Sudoeste 0 971.4 -1.4 75
2020-01-18 17:00:00 14.9 19 Sudoeste 34 Oeste 0 971.6 -1.4 72
2020-01-18 16:00:00 14.8 16 Oeste 34 Oeste 0 972.5 -1.3 77
2020-01-18 15:00:00 13.7 19 Oeste 34 Noroeste 0 972.8 -1.8 87
2020-01-18 14:00:00 14.5 13 Sudoeste 37 Oeste 0 973 -1.4 85
2020-01-18 13:00:00 13.8 7 Sudoeste 21 Oeste 0 973.8 0 86
2020-01-18 12:00:00 12.2 6 Oeste 17 Oeste 0 974.6 1.1 96
2020-01-18 11:00:00 11.3 3 Noroeste 17 Sudeste 0.2 974.4 0.7 95
2020-01-18 10:00:00 10.3 8 Sudeste 23 Sudeste 0.2 973.8 0.6 95
2020-01-18 09:00:00 10.2 17 Sudeste 28 Este 0.8 973.5 -0.6 95
2020-01-18 08:00:00 10 13 Este 21 Este 1 973.7 -1.3 93
2020-01-18 07:00:00 10.6 11 Sur 33 Sudeste 0.2 973.2 -2.4 91
2020-01-18 06:00:00 9.8 13 Sudeste 30 Sudeste 0.2 974.1 -2.2 89
2020-01-18 05:00:00 9.7 11 Sudeste 23 Sudeste 0.2 975 -2.4 91
2020-01-18 04:00:00 9.6 15 Sudeste 28 Sudeste 0.2 975.6 -2.3 92
2020-01-18 03:00:00 10.2 11 Sur 22 Sur 0.4 976.3 -2.2 84
2020-01-18 02:00:00 10.9 10 Sur 19 Sur 0 977.4 -1.1 78
2020-01-18 01:00:00 10.2 6 Sudeste 11 Sur 0 977.9 -0.9 82
2020-01-18 00:00:00 9.7 3 Nordeste 15 Sur 0 978.5 -0.4 81
2020-01-17 23:00:00 10.2 8 Sur 13 Sur 0 978.5 -0.4 75
2020-01-17 22:00:00 8.5 7 Sur 10 Sudeste 0 978.8 0.2 87
2020-01-17 21:00:00 8.7 6 Sur 8 Sur 0 978.9 0.5 86
2020-01-17 20:00:00 9.7 4 Sur 9 Sur 0 978.9 0.6 82
2020-01-17 19:00:00 10.8 4 Sur 8 Sudoeste 0 978.6 0.5 74
2020-01-17 18:00:00 11.8 5 Oeste 9 Sudoeste 0 978.4 0.1 67
2020-01-17 17:00:00 12.2 4 Noroeste 17 Oeste 0 978.3 -0.2 67
2020-01-17 16:00:00 12.9 10 Oeste 22 Oeste 0 978.1 -1.3 61
2020-01-17 15:00:00 13.2 12 Oeste 23 Noroeste 0 978.3 -1.6 60
2020-01-17 14:00:00 13 8 Oeste 22 Oeste 0 978.5 -0.5 64
2020-01-17 13:00:00 12.2 10 Oeste 21 Oeste 0 979.4 0.9 67
2020-01-17 12:00:00 11.5 13 Oeste 20 Oeste 0 979.9 2 73
2020-01-17 11:00:00 10.2 10 Sudoeste 20 Oeste 0 979 2.1 88
2020-01-17 10:00:00 9.9 7 Oeste 18 Oeste 0 978.5 2.3 92
2020-01-17 09:00:00 9.4 7 Oeste 18 Sudoeste 0 977.9 1.9 91
2020-01-17 08:00:00 8.5 7 Sur 15 Sur 0 976.9 1.5 95
2020-01-17 07:00:00 7.9 9 Sudoeste 15 Sur 0 976.2 0.5 94
2020-01-17 06:00:00 7.6 9 Sur 15 Sudoeste 0 976 1 94
2020-01-17 05:00:00 6.1 8 Sur 11 Sur 0 975.4 0.3 93
2020-01-17 04:00:00 7.7 5 Sur 15 Sur 0 975.7 1 93
2020-01-17 03:00:00 8.4 12 Sur 18 Sur 0 975 1 93
2020-01-17 02:00:00 7.7 8 Sur 12 Sudoeste 0 975.1 1.1 93
2020-01-17 01:00:00 8.9 10 Sur 17 Sur 0 974.7 0.8 91
2020-01-17 00:00:00 9.3 8 Sur 15 Sur 0.2 974 0.6 93
2020-01-16 23:00:00 9.4 7 Sur 15 Sur 0 974 2.2 93
2020-01-16 22:00:00 9.9 9 Sur 35 Sudoeste 1.4 973.9 2.4 92
2020-01-16 21:00:00 11.1 14 Sudoeste 36 Sur 0.4 973.4 2.5 82
2020-01-16 20:00:00 12.7 14 Sur 44 Sur 0 971.8 0.6 70
2020-01-16 19:00:00 13 15 Sur 39 Sur 0 971.5 0.1 68
2020-01-16 18:00:00 13.7 21 Sur 44 Sur 0 970.9 -0.9 64
2020-01-16 17:00:00 14.3 25 Sur 48 Sur 0 971.2 -1.5 61
2020-01-16 16:00:00 14.3 19 Sur 47 Sudoeste 0 971.4 -2.1 58
2020-01-16 15:00:00 14.4 18 Sur 42 Sudeste 0 971.8 -2.2 58
2020-01-16 14:00:00 13.7 23 Sur 45 Sur 0 972.7 -0.8 66
2020-01-16 13:00:00 13.2 20 Sur 39 Sur 0 973.5 0.3 68
2020-01-16 12:00:00 12.1 18 Sur 39 Sur 0 974 1.2 76
2020-01-16 11:00:00 11.1 21 Sur 42 Sur 0 973.5 0.9 82
2020-01-16 10:00:00 10.6 15 Sur 35 Sur 0 973.2 0.7 84
2020-01-16 09:00:00 10.8 15 Sur 32 Sur 0 972.8 0.3 85
2020-01-16 08:00:00 11.2 15 Sur 36 Sur 0 972.6 0 85
2020-01-16 07:00:00 11.4 17 Sur 31 Sur 0 972.5 -0.2 82
2020-01-16 06:00:00 11.3 8 Sur 28 Sur 0 972.5 -0.2 86
2020-01-16 05:00:00 11.5 12 Sur 26 Sur 0 972.6 -0.1 88
2020-01-16 04:00:00 11.8 12 Sur 27 Sur 0 972.7 -0.2 91
2020-01-16 03:00:00 11.8 13 Sur 31 Sudeste 0 972.7 -0.2 91
2020-01-16 02:00:00 11.7 12 Sudeste 28 Sudeste 0 972.7 -0.2 93
2020-01-16 01:00:00 11.8 13 Sur 27 Sur 0 972.9 0.2 93
2020-01-16 00:00:00 12 12 Sur 26 Sudeste 0 972.9 0.4 90
2020-01-15 23:00:00 12.2 14 Sudeste 25 Sudeste 0 972.9 0.9 91
2020-01-15 22:00:00 12.4 13 Sudeste 24 Sudeste 0 972.7 1.4 90
2020-01-15 21:00:00 12.5 14 Sur 28 Sur 0 972.5 1.6 89
2020-01-15 20:00:00 12.6 14 Sudeste 26 Sur 0 972 1.6 89
2020-01-15 19:00:00 13.1 13 Sudeste 28 Sur 0 971.3 1.2 85
2020-01-15 18:00:00 14.3 12 Sur 28 Sudeste 0 970.9 0.8 77
2020-01-15 17:00:00 14.7 14 Sur 28 Sudoeste 0 970.4 0 75
2020-01-15 16:00:00 14.2 14 Sur 33 Sur 0 970.1 -0.8 77
2020-01-15 15:00:00 13.7 15 Sur 34 Sur 0 970.1 -0.6 77
2020-01-15 14:00:00 13.5 22 Sur 35 Sur 0 970.4 0.9 79
2020-01-15 13:00:00 12.5 16 Sur 31 Sur 0 970.9 2.1 87
2020-01-15 12:00:00 11.7 13 Sur 40 Sudoeste 0.4 970.7 2.5 91
2020-01-15 11:00:00 11.6 21 Sur 48 Sur 0 969.5 1.8 89
2020-01-15 10:00:00 11.4 24 Sur 47 Sur 0 968.8 1.2 87
2020-01-15 09:00:00 10.5 24 Sur 49 Sur 0 968.2 0.8 90
2020-01-15 08:00:00 10.2 23 Sur 42 Sur 0.6 967.7 0.5 92
2020-01-15 07:00:00 9.5 17 Sur 41 Sudeste 0.6 967.6 0.3 91
2020-01-15 06:00:00 9 20 Sur 41 Sudeste 0.6 967.4 -0.2 92
2020-01-15 05:00:00 9.1 21 Sur 56 Sur 0 967.2 -0.9 89
2020-01-15 04:00:00 9.9 30 Sur 56 Sur 0 967.3 -1 83
2020-01-15 03:00:00 10.3 19 Sur 51 Sudeste 0 967.6 -0.6 78
2020-01-15 02:00:00 10.2 16 Sur 43 Sur 0 968.1 -0.2 79
2020-01-15 01:00:00 10 20 Sur 49 Sur 0 968.3 -0.1 82
2020-01-15 00:00:00 9.9 20 Sur 44 Sur 0 968.2 -0.4 84
2020-01-14 23:00:00 9.9 23 Sur 47 Sur 0 968.3 0.1 85
2020-01-14 22:00:00 9.8 20 Sur 37 Sur 0 968.4 0.4 87
2020-01-14 21:00:00 8.8 15 Sur 45 Sur 0 968.6 1 90
2020-01-14 20:00:00 8.8 21 Sur 40 Sudeste 0 968.2 0 88
2020-01-14 19:00:00 8.7 21 Sur 48 Sur 0 968 -0.1 87
2020-01-14 18:00:00 8.1 22 Sur 37 Sur 0 967.6 -0.7 90
2020-01-14 17:00:00 8.4 15 Sur 35 Sur 0 968.2 -0.9 90
2020-01-14 16:00:00 9.4 17 Sur 47 Sur 0 968.1 -1.9 76
2020-01-14 15:00:00 9.8 17 Sur 42 Sudeste 0 968.3 -2.4 72
2020-01-14 14:00:00 10.5 18 Sur 39 Sur 0 969.1 -1.2 66
2020-01-14 13:00:00 9.5 16 Sudeste 35 Sur 0 970 0.1 65
2020-01-14 12:00:00 8.9 17 Sudeste 35 Sudeste 0 970.7 1.1 68
2020-01-14 11:00:00 7.5 13 Sur 30 Sur 0 970.3 1.1 76
2020-01-14 10:00:00 7.4 15 Sur 29 Sudeste 0 969.9 0.7 73
2020-01-14 09:00:00 6.9 18 Sur 32 Sur 0 969.6 0.1 75
2020-01-14 08:00:00 7.5 16 Sur 28 Sur 0 969.2 -0.6 75
2020-01-14 07:00:00 7.4 11 Sur 19 Sur 0 969.2 -0.4 76
2020-01-14 06:00:00 6.1 6 Este 15 Sudeste 0 969.5 -0.6 81
2020-01-14 05:00:00 6.9 6 Sur 21 Sudeste 0 969.8 -1 77
2020-01-14 04:00:00 7.3 12 Sudeste 24 Sur 0 969.6 -1.6 75
2020-01-14 03:00:00 7.5 10 Sudeste 16 Sur 0 970.1 -1.8 75
2020-01-14 02:00:00 5.6 7 Sur 10 Sudeste 0 970.8 -1.2 84
2020-01-14 01:00:00 4.7 5 Sur 13 Sudeste 0 971.2 -0.7 84
2020-01-14 00:00:00 3.2 8 Sur 12 Sudeste 0 971.9 0.1 88
2020-01-13 23:00:00 2.7 6 Sur 9 Sudoeste 0 972 0.4 87
2020-01-13 22:00:00 3.3 7 Sudoeste 10 Sudoeste 0 971.9 0.7 84
2020-01-13 21:00:00 4.7 6 Sur 11 Sur 0 971.8 0.5 79
2020-01-13 20:00:00 6.4 9 Sur 13 Sudoeste 0 971.6 0.3 72
2020-01-13 19:00:00 8.2 9 Sur 15 Sudoeste 0 971.2 -0.4 63
2020-01-13 18:00:00 10.6 6 Oeste 13 Sudoeste 0 971.3 -1 59
2020-01-13 17:00:00 10.8 7 Nordeste 13 Este 0 971.3 -1.6 59
2020-01-13 16:00:00 10.6 5 Norte 15 Noroeste 0 971.6 -2.5 59
2020-01-13 15:00:00 10.6 5 Norte 15 Norte 0 972.3 -2.3 56
2020-01-13 14:00:00 10.4 5 Norte 11 Noroeste 0 972.9 -1.3 54
2020-01-13 13:00:00 9.2 7 Noroeste 13 Noroeste 0 974.1 0.3 66
2020-01-13 12:00:00 8 3 Noroeste 9 Sur 0 974.6 1.2 73
2020-01-13 11:00:00 5.8 2 Este 8 Sudoeste 0 974.2 1 75
2020-01-13 10:00:00 2.4 7 Sudoeste 10 Sudoeste 0 973.8 0.4 85
2020-01-13 09:00:00 2.4 5 Sudeste 13 Sur 0 973.4 -0.3 84
2020-01-13 08:00:00 3.3 9 Sur 15 Sudeste 0 973.2 -0.6 80
2020-01-13 07:00:00 0.8 8 Sur 11 Sur 0 973.4 -1.2 87
2020-01-13 06:00:00 0.7 7 Sudoeste 11 Sudoeste 0 973.7 -1.1 87
2020-01-13 05:00:00 0.8 7 Sur 9 Sudoeste 0 973.8 -1.5 86
2020-01-13 04:00:00 1.1 8 Sudoeste 11 Sudoeste 0 974.6 -1.2 85
2020-01-13 03:00:00 1.5 7 Sur 9 Sudoeste 0 974.8 -1.3 85
2020-01-13 02:00:00 1.9 8 Sur 10 Sur 0 975.3 -1 83
2020-01-13 01:00:00 2.3 8 Sudoeste 11 Sudoeste 0 975.8 -0.7 81
2020-01-13 00:00:00 2.6 8 Sudoeste 10 Sudoeste 0 976.1 -0.6 80
2020-01-12 23:00:00 2.9 6 Sur 10 Sudoeste 0 976.3 -0.5 80
2020-01-12 22:00:00 3.3 6 Sur 9 Sudoeste 0 976.5 0 80
2020-01-12 21:00:00 4.5 7 Sudoeste 10 Sudoeste 0 976.7 0.4 77
2020-01-12 20:00:00 6.1 7 Sur 9 Sur 0 976.8 0.6 73
2020-01-12 19:00:00 9.3 4 Sur 6 Oeste 0 976.5 0.2 57
2020-01-12 18:00:00 12 4 Noroeste 8 Noroeste 0 976.3 -0.5 48
2020-01-12 17:00:00 12 5 Noroeste 9 Noroeste 0 976.2 -1.6 52
2020-01-12 16:00:00 11.5 5 Noroeste 11 Norte 0 976.3 -2.5 50
2020-01-12 15:00:00 10.9 4 Noroeste 10 Noroeste 0 976.8 -2.4 49
2020-01-12 14:00:00 10.6 6 Noroeste 12 Noroeste 0 977.8 -1 50
2020-01-12 13:00:00 9.6 3 Noroeste 6 Noroeste 0 978.8 0.5 55
2020-01-12 12:00:00 7.3 3 Noroeste 9 Noroeste 0 979.2 1.1 67
2020-01-12 11:00:00 5.3 3 Oeste 9 Sudoeste 0 978.8 0.9 71
2020-01-12 10:00:00 0.5 5 Sur 9 Sudoeste 0 978.3 0.5 84
2020-01-12 09:00:00 -1 7 Sur 10 Sudoeste 0 978.1 0.4 87
2020-01-12 08:00:00 -0.6 8 Sur 10 Sudoeste 0 977.9 0 87
2020-01-12 07:00:00 -0.5 7 Sur 9 Sudoeste 0 977.8 -0.4 87
2020-01-12 06:00:00 -0.1 7 Sur 11 Sur 0 977.7 -0.4 86
2020-01-12 05:00:00 0.1 8 Sur 10 Sur 0 977.9 -0.4 87
2020-01-12 04:00:00 0.5 6 Sudoeste 12 Sudoeste 0 978.2 -0.3 86
2020-01-12 03:00:00 0.9 7 Sur 10 Sur 0 978.1 -0.4 85
2020-01-12 02:00:00 1.2 9 Sudoeste 12 Sur 0 978.3 -0.2 84
2020-01-12 01:00:00 1.6 7 Sur 10 Sur 0 978.5 0.1 82
2020-01-12 00:00:00 1.7 8 Sudoeste 12 Sudoeste 0 978.5 0.1 82
2020-01-11 23:00:00 2.4 7 Sudoeste 11 Sur 0 978.5 0.2 82
2020-01-11 22:00:00 2.9 8 Sur 12 Sudoeste 0 978.4 0.8 81
2020-01-11 21:00:00 4 7 Sur 10 Sudoeste 0 978.4 1 78
2020-01-11 20:00:00 5.4 6 Sudoeste 9 Sudoeste 0 978.3 0.9 73
2020-01-11 19:00:00 8.4 4 Este 8 Norte 0 977.6 0.3 61
2020-01-11 18:00:00 10.6 5 Norte 12 Nordeste 0 977.4 0.1 55
2020-01-11 17:00:00 11.1 8 Nordeste 15 Norte 0 977.4 -0.8 49
2020-01-11 16:00:00 11.2 7 Nordeste 19 Este 0 977.3 -2 47
2020-01-11 15:00:00 11 10 Este 20 Este 0 977.3 -2.4 48
2020-01-11 14:00:00 10.2 10 Este 19 Nordeste 0 978.2 -1.1 55
2020-01-11 13:00:00 9.6 6 Nordeste 14 Nordeste 0 979.3 0.8 58
2020-01-11 12:00:00 8.5 6 Este 14 Nordeste 0 979.7 1.5 60
2020-01-11 11:00:00 5.9 4 Sur 8 Sudoeste 0 979.3 1 71
2020-01-11 10:00:00 1.1 7 Sudoeste 9 Sudoeste 0 978.5 0.4 86
2020-01-11 09:00:00 -0.2 5 Sur 10 Sur 0 978.2 0.2 88
2020-01-11 08:00:00 0 6 Sur 10 Sur 0 978.3 0.3 88
2020-01-11 07:00:00 0.4 5 Sur 9 Sur 0 978.1 0.1 87
2020-01-11 06:00:00 0.5 7 Sur 10 Sudoeste 0 978 -0.2 87
2020-01-11 05:00:00 0.7 7 Sur 12 Sudoeste 0 978 -0.2 86
2020-01-11 04:00:00 0.8 6 Sur 9 Sudoeste 0 978 -0.5 86
2020-01-11 03:00:00 1.3 6 Sur 10 Sudoeste 0 978.2 -0.2 85
2020-01-11 02:00:00 1.9 7 Sur 11 Sudoeste 0 978.2 0.2 82
2020-01-11 01:00:00 2.8 6 Sudoeste 9 Sudoeste 0 978.5 1.1 78
2020-01-11 00:00:00 5.5 4 Sur 17 Nordeste 0 978.4 1.2 67
2020-01-10 23:00:00 6.5 4 Este 18 Nordeste 0 978 1.2 63
2020-01-10 22:00:00 7.4 5 Nordeste 21 Nordeste 0 977.4 1.2 57
2020-01-10 21:00:00 8 11 Nordeste 19 Nordeste 0 977.2 1.4 57
2020-01-10 20:00:00 8.4 6 Nordeste 18 Norte 0 976.8 1.5 56
2020-01-10 19:00:00 8.8 8 Norte 16 Norte 0 976.2 0.8 55
2020-01-10 18:00:00 10.8 8 Norte 23 Nordeste 0 975.8 0 49
2020-01-10 17:00:00 11.3 18 Nordeste 32 Nordeste 0 975.3 -0.4 46
2020-01-10 16:00:00 11.7 15 Nordeste 30 Norte 0 975.4 -1.3 44
2020-01-10 15:00:00 11.1 12 Nordeste 23 Norte 0 975.8 -1.2 53
2020-01-10 14:00:00 10.4 14 Nordeste 30 Nordeste 0 975.7 -0.7 57
2020-01-10 13:00:00 9.6 15 Nordeste 28 Nordeste 0 976.7 0.3 56
2020-01-10 12:00:00 8.5 14 Norte 26 Norte 0 977 1.1 63
2020-01-10 11:00:00 6.6 12 Norte 36 Norte 0 976.4 0.9 73
2020-01-10 10:00:00 4.9 13 Noroeste 25 Noroeste 0 976.4 1.4 77
2020-01-10 09:00:00 4.9 15 Noroeste 32 Noroeste 0 975.9 0.9 76
2020-01-10 08:00:00 4.8 15 Noroeste 35 Noroeste 0 975.5 0.4 74
2020-01-10 07:00:00 5.6 13 Noroeste 24 Noroeste 0 975 -0.2 70
2020-01-10 06:00:00 5 12 Noroeste 26 Noroeste 0 975 0.2 74
2020-01-10 05:00:00 5.5 10 Noroeste 19 Noroeste 0 975.1 0.1 74
2020-01-10 04:00:00 5.1 10 Noroeste 20 Noroeste 0 975.2 0.1 85
2020-01-10 03:00:00 5.6 9 Noroeste 18 Noroeste 0 974.8 -0.6 86
2020-01-10 02:00:00 6.6 9 Noroeste 20 Oeste 0 975 -0.2 84
2020-01-10 01:00:00 7.5 9 Noroeste 22 Noroeste 0 975.1 0.3 84
2020-01-10 00:00:00 8.2 13 Noroeste 26 Noroeste 0 975.4 0.4 81
2020-01-09 23:00:00 8.7 13 Noroeste 22 Noroeste 0 975.2 0.8 80
2020-01-09 22:00:00 9.8 16 Oeste 30 Oeste 0 974.8 1 80
2020-01-09 21:00:00 10.7 10 Oeste 35 Oeste 0 975 1.1 81
2020-01-09 20:00:00 12.1 15 Oeste 36 Oeste 0 974.4 0.4 89
2020-01-09 19:00:00 12.4 16 Oeste 30 Oeste 0 973.8 0.6 84
2020-01-09 18:00:00 13.9 12 Oeste 30 Oeste 0 973.9 -0.3 76
2020-01-09 17:00:00 15 17 Oeste 26 Oeste 0 974 -0.8 66
2020-01-09 16:00:00 15.1 7 Oeste 13 Noroeste 0 973.2 -2.4 59
2020-01-09 15:00:00 13.6 6 Noroeste 11 Noroeste 0 974.2 -2.1 57
2020-01-09 14:00:00 12.9 5 Noroeste 10 Noroeste 0 974.8 -0.9 59
2020-01-09 13:00:00 11.9 3 Norte 9 Norte 0 975.6 0.2 64
2020-01-09 12:00:00 10.5 0 Calma 8 Norte 0 976.3 1.4 67
2020-01-09 11:00:00 7.9 3 Sudoeste 8 Sur 0 975.7 1 75
2020-01-09 10:00:00 3.3 5 Sur 9 Sudeste 0 975.4 0.9 88
2020-01-09 09:00:00 2.3 6 Sur 11 Sudoeste 0 974.9 0.8 91
2020-01-09 08:00:00 2.1 6 Sur 10 Sudoeste 0 974.7 0.1 90
2020-01-09 07:00:00 2.9 5 Sur 10 Sudoeste 0 974.5 -0.5 87
2020-01-09 06:00:00 2.8 8 Sudoeste 10 Sur 0 974.1 -0.6 90
2020-01-09 05:00:00 2.6 6 Sudoeste 10 Sudoeste 0 974.6 -0.4 89
2020-01-09 04:00:00 2.8 7 Sudoeste 12 Sudoeste 0 975 -0.3 87
2020-01-09 03:00:00 2.6 8 Sudoeste 10 Sudoeste 0 974.7 -1 88
2020-01-09 02:00:00 2.5 6 Sudoeste 10 Sudoeste 0 975 -0.6 86
2020-01-09 01:00:00 2.4 6 Sur 10 Sudoeste 0 975.3 -0.3 86
2020-01-09 00:00:00 2.8 5 Sudoeste 11 Sudoeste 0 975.7 0.1 85
2020-01-08 23:00:00 3.6 6 Sur 11 Sudoeste 0 975.6 0.3 82
2020-01-08 22:00:00 4.3 7 Sur 9 Sudoeste 0 975.6 0.4 83
2020-01-08 21:00:00 5.6 5 Sudoeste 8 Sudoeste 0 975.6 0.6 80
2020-01-08 20:00:00 7.2 5 Sur 10 Sudoeste 0 975.3 0.4 77
2020-01-08 19:00:00 10.2 2 Sur 5 Oeste 0 975.2 0.2 67
2020-01-08 18:00:00 13.6 3 Noroeste 11 Noroeste 0 975 -0.3 55
2020-01-08 17:00:00 13.3 8 Noroeste 13 Noroeste 0 974.9 -0.8 46
2020-01-08 16:00:00 13.6 5 Noroeste 10 Noroeste 0 975 -1.7 52
2020-01-08 15:00:00 13.3 4 Norte 10 Norte 0 975.3 -2.2 52
2020-01-08 14:00:00 12.5 6 Norte 9 Norte 0 975.7 -1.7 53
2020-01-08 13:00:00 11.4 4 Norte 7 Norte 0 976.7 -0.2 57
2020-01-08 12:00:00 9.8 0 Calma 5 Sudoeste 0 977.5 1.2 52
2020-01-08 11:00:00 7.4 0 Calma 4 Norte 0 977.4 1.4 60
2020-01-08 10:00:00 3 3 Oeste 10 Sudoeste 0 976.9 1 67
2020-01-08 09:00:00 1.9 9 Sur 11 Sur 0 976.3 0.2 72
2020-01-08 08:00:00 2.3 10 Sudoeste 14 Sudoeste 0 976 -0.5 75
2020-01-08 07:00:00 1.8 7 Sur 11 Sur 0 975.9 -0.8 81
2020-01-08 06:00:00 1.5 9 Sudoeste 12 Sudoeste 0 976.1 -0.7 80
2020-01-08 05:00:00 1.4 8 Sudoeste 10 Sur 0 976.5 -0.8 81
2020-01-08 04:00:00 2 6 Sudoeste 10 Sur 0 976.7 -0.6 78
2020-01-08 03:00:00 2.4 8 Sur 11 Sur 0 976.8 -1 78
2020-01-08 02:00:00 2.7 7 Sudoeste 10 Sudoeste 0 977.3 -0.6 77
2020-01-08 01:00:00 3.5 9 Sudoeste 11 Sudoeste 0 977.3 -0.7 75
2020-01-08 00:00:00 3.4 8 Sur 10 Sudoeste 0 977.8 -0.2 78
2020-01-07 23:00:00 3.8 7 Sur 10 Sur 0 977.9 -0.1 80
2020-01-07 22:00:00 4.3 8 Sur 9 Sur 0 978 0.2 82
2020-01-07 21:00:00 5.5 7 Sur 10 Sudoeste 0 978 0.3 85
2020-01-07 20:00:00 7.3 5 Sur 9 Sur 0 978 0.5 82
2020-01-07 19:00:00 10.2 5 Sur 12 Noroeste 0 977.8 0.2 70
2020-01-07 18:00:00 12.6 8 Noroeste 11 Noroeste 0 977.7 0 65
2020-01-07 17:00:00 13.6 6 Noroeste 12 Noroeste 0 977.5 -0.8 58
2020-01-07 16:00:00 13.9 7 Noroeste 13 Noroeste 0 977.6 -1.6 62
2020-01-07 15:00:00 13.7 6 Norte 12 Nordeste 0 977.7 -2 59
2020-01-07 14:00:00 13 5 Nordeste 9 Este 0 978.3 -1.3 62
2020-01-07 13:00:00 11.4 5 Norte 9 Norte 0 979.2 0.3 68
2020-01-07 12:00:00 10.3 5 Noroeste 7 Norte 0 979.7 1.6 70
2020-01-07 11:00:00 7.4 0 Calma 8 Sudoeste 0 979.6 1.6 77
2020-01-07 10:00:00 2.7 6 Sudoeste 8 Sudoeste 0 978.9 0.8 87
2020-01-07 09:00:00 1 7 Sudoeste 9 Sudoeste 0 978.1 0.1 89
2020-01-07 08:00:00 1.1 6 Sur 10 Sudoeste 0 978 -0.1 88
2020-01-07 07:00:00 1 7 Sur 9 Sur 0 978.1 -0.1 87
2020-01-07 06:00:00 1.2 6 Sur 9 Sur 0 978 0.2 84
2020-01-07 05:00:00 1.5 7 Sur 10 Sur 0 978.1 0.3 82
2020-01-07 04:00:00 1.7 8 Sur 10 Sur 0 978.2 0.4 78
2020-01-07 03:00:00 1.9 9 Sudoeste 12 Sudoeste 0 977.8 -0.2 76
2020-01-07 02:00:00 2.1 9 Sudoeste 11 Sudoeste 0 977.8 0.2 76
2020-01-07 01:00:00 2.6 8 Sur 11 Sur 0 977.8 0.3 77
2020-01-07 00:00:00 2.6 7 Sudoeste 10 Sur 0 978 0.8 82
2020-01-06 23:00:00 3.4 6 Sur 9 Sur 0 977.6 0.4 83
2020-01-06 22:00:00 4 6 Sur 9 Sur 0 977.5 0.8 88
2020-01-06 21:00:00 5.2 8 Sur 11 Sur 0 977.2 1.1 88
2020-01-06 20:00:00 6.5 4 Sur 7 Noroeste 0 977.2 1.5 84
2020-01-06 19:00:00 8.8 4 Oeste 8 Noroeste 0 976.7 1.3 76
2020-01-06 18:00:00 10.6 6 Noroeste 13 Noroeste 0 976.1 0.7 70
2020-01-06 17:00:00 11.6 8 Noroeste 13 Noroeste 0 975.7 -0.3 66
2020-01-06 16:00:00 12.1 6 Noroeste 12 Norte 0 975.4 -1.3 62
2020-01-06 15:00:00 12.1 6 Norte 13 Noroeste 0 975.4 -2.2 62
2020-01-06 14:00:00 11.4 7 Norte 14 Este 0 976 -1.4 64
2020-01-06 13:00:00 10.8 5 Nordeste 9 Este 0 976.7 0 67
2020-01-06 12:00:00 9.1 4 Este 8 Este 0 977.6 1.3 70
2020-01-06 11:00:00 7 2 Sur 10 Sudoeste 0 977.4 1.7 81
2020-01-06 10:00:00 2.4 5 Sur 9 Sur 0 976.7 1.3 91